• Join FlightAware (Why Join?)
  • Login
  • US Flag 
10:30AM EDT


 

Airport Tracker/Info


-or-


 

Live Flight TrackerFlight Track Log ✈ JIA2328 ✈ 15-May-2013 ✈ KCLT - KOAJ

Flight Track Log - Related Links

Times and Time Zones

All times are in EDT time to prevent confusion due to time zone crossing. See the JIA2328 flight status page for this flight to view local times or setup timezone preferences in your user account.

Time Position Orientation Groundspeed Altitude Reporting Facility
EDT Latitude Longitude Course Direction KTS MPH feet Rate Location/Type
06:02PM 35.1886 -80.9333 106° East 169 194 1,600  Level Atlanta Center
06:03PM 35.1403 -80.9172 165° South 209 241 3,600 2,160 Climbing Atlanta Center
06:04PM 35.1000 -80.6332 109° East  Level FlightAware Approximate
06:04PM 35.1194 -80.8419 109° East 240 276 6,000  Level Atlanta Center
06:05PM 35.0667 -80.5112 90° East  Level FlightAware Approximate
06:05PM 35.0983 -80.7486 105° East 315 362 7,900  Level Atlanta Center
06:06PM 35.0399 -80.3870 106° East  Level FlightAware Approximate
06:06PM 35.0789 -80.6481 103° East 321 369 10,100  Level Atlanta Center
06:07PM 35.0104 -80.2633 106° East  Level FlightAware Approximate
06:08PM 35.0450 -80.4603 102° East 320 368 14,200  Level Washington Center
06:09PM 35.0264 -80.3528 102° East 325 374 16,200 1,680 Climbing Washington Center
06:10PM 35.0075 -80.2475 102° East 336 387 17,700 1,380 Climbing Washington Center
06:11PM 34.9792 -80.1167 105° East 347 399 19,000 600 Climbing Washington Center
06:12PM 34.9539 -80.0139 107° East 353 406 19,000  Level Washington Center
06:13PM 34.9331 -79.8964 102° East 353 406 19,000  Level Washington Center
06:14PM 34.9417 -79.7750 85° East 353 406 19,000  Level Washington Center
06:15PM 34.9481 -79.6514 86° East 353 406 19,000  Level Washington Center
06:16PM 34.9561 -79.5325 85° East 353 406 19,000  Level Washington Center
06:17PM 34.9600 -79.4136 88° East 353 406 19,000  Level Washington Center
06:18PM 34.9661 -79.2822 87° East 347 399 19,000  Level Washington Center
06:19PM 34.9594 -79.1628 94° East 347 399 19,000 -60 Level Washington Center
06:20PM 34.9481 -79.0458 97° East 347 399 18,900 -600 Descending Washington Center
06:21PM 34.9411 -78.9289 94° East 352 405 17,900 -1,080 Descending Washington Center
06:22PM 34.9336 -78.8172 95° East 339 390 16,800 -1,080 Descending Washington Center
06:23PM 34.9219 -78.7103 98° East 325 374 15,800 -1,020 Descending Washington Center
06:24PM 34.9142 -78.6036 95° East 319 367 14,800 -1,020 Descending Washington Center
06:25PM 34.9044 -78.4969 96° East 314 361 13,800 -1,020 Descending Washington Center
06:26PM 34.8967 -78.3878 95° East 314 361 12,800 -1,620 Descending Washington Center
06:27PM 34.8867 -78.2783 96° East 314 361 10,600 -2,340 Descending Washington Center
06:28PM 34.8867 -78.1722 90° East 314 361 8,200 -2,220 Descending Washington Center
06:29PM 34.9181 -78.0769 68° East 303 349 6,300 -1,740 Descending Washington Center
06:30PM 34.9492 -77.9842 68° East 292 336 4,800 -1,320 Descending Washington Center
06:31PM 34.9758 -77.8986 69° East 279 321 3,700 -900 Descending Washington Center
06:32PM 35.0047 -77.8108 68° East 279 321 3,100 -300 Descending Washington Center
06:33PM 35.0314 -77.7203 70° East 274 315 3,100  Level Washington Center
06:34PM 35.0533 -77.6472 70° East 255 293 3,100  Level Washington Center
06:35PM 35.0756 -77.5742 70° East 237 273 3,100  Level Washington Center